Time;durP1;ratioP1;P1;durP2;ratioP2;P2;SDS_P1;SDS_P2;PMS_P1;PMS_P2;Temp;Humidity;BMP_temperature;BMP_pressure;BME280_temperature;BME280_humidity;BME280_pressure;Samples;Min_cycle;Max_cycle;Signal;HPM_P1;HPM_P2
2023/05/27 00:00:22;;;;;;;;;;;20.50;92.70;;;;;;5114951;28;19907;-60
2023/05/27 00:02:48;;;;;;;;;;;20.50;92.70;;;;;;5114521;28;19915;-60
2023/05/27 00:05:13;;;;;;;;;;;20.50;92.70;;;;;;5114552;28;20396;-60
2023/05/27 00:07:38;;;;;;;;;;;20.50;92.60;;;;;;5114723;28;19908;-60
2023/05/27 00:10:05;;;;;;;;;;;20.50;92.60;;;;;;5114501;28;19960;-60
2023/05/27 00:12:30;;;;;;;;;;;20.50;92.60;;;;;;5114757;28;19935;-59
2023/05/27 00:14:56;;;;;;;;;;;20.40;92.50;;;;;;5114697;28;20343;-60
2023/05/27 00:17:21;;;;;;;;;;;20.50;92.60;;;;;;5096408;28;19912;-60
2023/05/27 00:19:48;;;;;;;;;;;20.50;92.70;;;;;;5114367;28;19908;-60
2023/05/27 00:22:13;;;;;;;;;;;20.50;92.70;;;;;;5097670;28;19912;-59
2023/05/27 00:24:41;;;;;;;;;;;20.50;92.80;;;;;;5076206;28;19918;-60
2023/05/27 00:27:06;;;;;;;;;;;20.50;92.70;;;;;;5076233;28;19908;-60
2023/05/27 00:29:32;;;;;;;;;;;20.50;92.70;;;;;;5094193;28;19908;-60
2023/05/27 00:31:57;;;;;;;;;;;20.50;92.70;;;;;;5093898;28;20429;-60
2023/05/27 00:34:23;;;;;;;;;;;20.40;92.60;;;;;;5093954;28;19999;-60
2023/05/27 00:36:48;;;;;;;;;;;20.50;92.60;;;;;;5093890;28;20287;-59
2023/05/27 00:39:14;;;;;;;;;;;20.40;92.60;;;;;;5076074;28;19908;-60
2023/05/27 00:41:42;;;;;;;;;;;20.40;92.50;;;;;;5093996;28;19919;-60
2023/05/27 00:44:07;;;;;;;;;;;20.40;92.50;;;;;;5093888;28;19924;-60
2023/05/27 00:46:33;;;;;;;;;;;20.50;92.60;;;;;;5093811;28;19908;-59
2023/05/27 00:48:59;;;;;;;;;;;20.40;92.60;;;;;;5093848;28;19912;-60
2023/05/27 00:51:24;;;;;;;;;;;20.40;92.60;;;;;;5094413;28;19967;-60
2023/05/27 00:53:50;;;;;;;;;;;20.50;92.60;;;;;;5093976;28;19908;-59
2023/05/27 00:56:16;;;;;;;;;;;20.50;92.60;;;;;;5094054;28;19977;-59
2023/05/27 00:58:42;;;;;;;;;;;20.40;92.60;;;;;;5075915;28;20313;-59
2023/05/27 01:01:08;;;;;;;;;;;20.50;92.70;;;;;;5075944;28;19951;-59
2023/05/27 01:03:34;;;;;;;;;;;20.50;92.60;;;;;;5093789;28;19916;-59
2023/05/27 01:06:07;;;;;;;;;;;20.50;92.60;;;;;;5093915;28;20025;-59
2023/05/27 01:09:05;;;;;;;;;;;20.40;92.70;;;;;;5094150;28;19915;-59
2023/05/27 01:11:39;;;;;;;;;;;20.40;92.70;;;;;;5059633;28;19908;-59
2023/05/27 01:14:08;;;;;;;;;;;20.40;92.70;;;;;;5093555;28;19955;-59
2023/05/27 01:16:35;;;;;;;;;;;20.40;92.90;;;;;;5093800;28;20247;-59
2023/05/27 01:19:03;;;;;;;;;;;20.40;92.70;;;;;;5097044;28;19951;-60
2023/05/27 01:21:30;;;;;;;;;;;20.50;92.70;;;;;;5107620;28;19919;-59
2023/05/27 01:24:02;;;;;;;;;;;20.40;92.70;;;;;;5117999;28;19907;-60
2023/05/27 01:26:27;;;;;;;;;;;20.50;92.80;;;;;;5118062;28;19908;-60
2023/05/27 01:28:53;;;;;;;;;;;20.40;92.80;;;;;;5117916;28;20365;-59
2023/05/27 01:31:21;;;;;;;;;;;20.40;92.70;;;;;;5117525;28;19911;-60
2023/05/27 01:33:49;;;;;;;;;;;20.40;92.70;;;;;;5118096;28;19908;-59
2023/05/27 01:36:17;;;;;;;;;;;20.40;92.60;;;;;;5118031;28;19908;-59
2023/05/27 01:38:43;;;;;;;;;;;20.50;92.70;;;;;;5117334;28;20376;-59
2023/05/27 01:41:09;;;;;;;;;;;20.40;92.70;;;;;;5117798;28;19980;-59
2023/05/27 01:43:36;;;;;;;;;;;20.40;92.70;;;;;;5117606;28;19965;-59
2023/05/27 01:46:01;;;;;;;;;;;20.40;92.80;;;;;;5117557;28;19908;-59
2023/05/27 01:48:27;;;;;;;;;;;20.40;92.80;;;;;;5117853;28;19916;-60
2023/05/27 01:50:52;;;;;;;;;;;20.50;92.80;;;;;;5099131;28;19908;-59
2023/05/27 01:53:18;;;;;;;;;;;20.40;92.70;;;;;;5099135;28;19912;-60
2023/05/27 01:55:43;;;;;;;;;;;20.40;92.70;;;;;;5117444;28;19934;-59
2023/05/27 01:58:09;;;;;;;;;;;20.40;92.80;;;;;;5117328;28;19908;-59
2023/05/27 02:00:34;;;;;;;;;;;20.40;92.70;;;;;;5117350;28;19995;-59
2023/05/27 02:03:00;;;;;;;;;;;20.40;92.80;;;;;;5116914;28;19958;-59
2023/05/27 02:05:25;;;;;;;;;;;20.40;92.70;;;;;;5098927;28;19961;-59
2023/05/27 02:07:51;;;;;;;;;;;20.40;92.70;;;;;;5117133;28;19940;-59
2023/05/27 02:10:16;;;;;;;;;;;20.40;92.70;;;;;;5116876;28;20359;-60
2023/05/27 02:12:42;;;;;;;;;;;20.40;92.70;;;;;;5117001;28;19931;-59
2023/05/27 02:15:08;;;;;;;;;;;20.40;92.70;;;;;;5098655;28;19908;-59
2023/05/27 02:17:33;;;;;;;;;;;20.40;92.80;;;;;;5116975;28;19994;-60
2023/05/27 02:19:58;;;;;;;;;;;20.40;92.80;;;;;;5116597;28;19908;-59
2023/05/27 02:22:24;;;;;;;;;;;20.40;92.80;;;;;;5098095;28;19916;-59
2023/05/27 02:24:49;;;;;;;;;;;20.40;92.70;;;;;;5096378;28;19912;-59
2023/05/27 02:27:15;;;;;;;;;;;20.40;92.70;;;;;;5078242;28;19912;-60
2023/05/27 02:29:40;;;;;;;;;;;20.40;92.70;;;;;;5096357;28;19954;-60
2023/05/27 02:32:06;;;;;;;;;;;20.40;92.70;;;;;;5078150;28;19967;-59
2023/05/27 02:34:36;;;;;;;;;;;20.40;92.80;;;;;;5096240;28;19908;-59
2023/05/27 02:37:02;;;;;;;;;;;20.40;92.80;;;;;;5096194;28;19923;-59
2023/05/27 02:39:27;;;;;;;;;;;20.40;92.80;;;;;;5096154;28;19908;-59
2023/05/27 02:41:53;;;;;;;;;;;20.40;92.80;;;;;;5095748;28;19919;-60
2023/05/27 02:44:18;;;;;;;;;;;20.40;92.70;;;;;;5077973;28;20007;-59
2023/05/27 02:46:44;;;;;;;;;;;20.40;92.70;;;;;;5096355;28;20343;-60
2023/05/27 02:49:09;;;;;;;;;;;20.40;92.70;;;;;;5096018;28;19908;-59
2023/05/27 02:51:35;;;;;;;;;;;20.40;92.70;;;;;;5077753;28;20247;-59
2023/05/27 02:54:01;;;;;;;;;;;20.40;92.70;;;;;;5095589;28;19908;-60
2023/05/27 02:56:26;;;;;;;;;;;20.40;92.90;;;;;;5095841;28;19908;-60
2023/05/27 02:58:52;;;;;;;;;;;20.40;92.80;;;;;;5077992;28;19909;-60
2023/05/27 03:01:18;;;;;;;;;;;20.40;92.80;;;;;;5095356;28;19908;-60
2023/05/27 03:03:43;;;;;;;;;;;20.40;92.80;;;;;;5095396;28;19908;-60
2023/05/27 03:06:09;;;;;;;;;;;20.40;92.80;;;;;;5095381;28;19908;-60
2023/05/27 03:08:35;;;;;;;;;;;20.40;92.70;;;;;;5095300;28;19977;-60
2023/05/27 03:11:00;;;;;;;;;;;20.40;92.80;;;;;;5095141;28;19950;-60
2023/05/27 03:13:26;;;;;;;;;;;20.40;92.80;;;;;;5077149;28;19908;-60
2023/05/27 03:15:54;;;;;;;;;;;20.40;92.80;;;;;;5095715;28;19915;-60
2023/05/27 03:18:19;;;;;;;;;;;20.40;92.70;;;;;;5095393;28;19908;-60
2023/05/27 03:20:45;;;;;;;;;;;20.30;92.80;;;;;;5099974;28;20338;-60
2023/05/27 03:23:10;;;;;;;;;;;20.40;92.90;;;;;;5096943;28;20270;-60
2023/05/27 03:25:36;;;;;;;;;;;20.40;92.80;;;;;;5115611;28;19999;-60
2023/05/27 03:28:01;;;;;;;;;;;20.40;92.80;;;;;;5115315;28;20017;-60
2023/05/27 03:30:27;;;;;;;;;;;20.40;92.80;;;;;;5115207;28;19909;-60
2023/05/27 03:32:52;;;;;;;;;;;20.30;92.80;;;;;;5115445;28;20010;-60
2023/05/27 03:35:18;;;;;;;;;;;20.40;93.00;;;;;;5115117;28;19912;-60
2023/05/27 03:37:43;;;;;;;;;;;20.40;92.90;;;;;;5115181;28;19911;-60
2023/05/27 03:40:09;;;;;;;;;;;20.40;92.90;;;;;;5114825;28;19907;-60
2023/05/27 03:42:35;;;;;;;;;;;20.40;93.00;;;;;;5115170;28;19959;-60
2023/05/27 03:45:00;;;;;;;;;;;20.40;92.90;;;;;;5115409;28;19959;-60
2023/05/27 03:47:26;;;;;;;;;;;20.40;92.90;;;;;;5115163;28;19914;-60
2023/05/27 03:49:51;;;;;;;;;;;20.40;92.90;;;;;;5115103;28;20406;-60
2023/05/27 03:52:16;;;;;;;;;;;20.40;92.90;;;;;;5115383;28;19908;-60
2023/05/27 03:54:42;;;;;;;;;;;20.40;93.00;;;;;;5115024;28;19955;-60
2023/05/27 03:57:08;;;;;;;;;;;20.40;93.00;;;;;;5114737;28;20455;-60
2023/05/27 03:59:34;;;;;;;;;;;20.40;93.00;;;;;;5115039;28;19915;-60
2023/05/27 04:02:00;;;;;;;;;;;20.40;93.00;;;;;;5114943;28;19939;-60
2023/05/27 04:04:25;;;;;;;;;;;20.40;93.00;;;;;;5114956;28;19908;-60
2023/05/27 04:06:51;;;;;;;;;;;20.30;93.00;;;;;;5096607;28;20016;-60
2023/05/27 04:09:16;;;;;;;;;;;20.30;93.00;;;;;;5114747;28;20354;-60
2023/05/27 04:11:42;;;;;;;;;;;20.40;93.00;;;;;;5114426;28;19908;-60
2023/05/27 04:14:07;;;;;;;;;;;20.40;93.10;;;;;;5114294;28;19947;-60
2023/05/27 04:16:33;;;;;;;;;;;20.40;93.00;;;;;;5114926;28;19934;-60
2023/05/27 04:18:59;;;;;;;;;;;20.40;93.10;;;;;;5114655;28;19950;-59
2023/05/27 04:21:25;;;;;;;;;;;20.40;93.10;;;;;;5104302;28;19908;-60
2023/05/27 04:23:50;;;;;;;;;;;20.40;93.10;;;;;;5094629;28;20268;-60
2023/05/27 04:26:16;;;;;;;;;;;20.40;93.10;;;;;;5076114;28;19973;-59
2023/05/27 04:28:45;;;;;;;;;;;20.40;93.10;;;;;;5093829;28;19908;-60
2023/05/27 04:31:12;;;;;;;;;;;20.40;93.10;;;;;;5094209;28;19908;-60
2023/05/27 04:33:40;;;;;;;;;;;20.40;93.10;;;;;;5094528;28;19912;-60
2023/05/27 04:36:09;;;;;;;;;;;20.40;93.00;;;;;;5094397;28;19950;-60
2023/05/27 04:38:34;;;;;;;;;;;20.40;92.90;;;;;;5094152;28;19943;-59
2023/05/27 04:41:00;;;;;;;;;;;20.40;92.90;;;;;;5093843;28;19909;-60
2023/05/27 04:43:26;;;;;;;;;;;20.40;92.80;;;;;;5094073;28;20343;-59
2023/05/27 04:45:52;;;;;;;;;;;20.40;92.80;;;;;;5093766;28;19933;-60
2023/05/27 04:48:18;;;;;;;;;;;20.40;92.90;;;;;;5094037;28;20003;-59
2023/05/27 04:50:43;;;;;;;;;;;20.40;92.80;;;;;;5093814;28;20419;-59
2023/05/27 04:53:09;;;;;;;;;;;20.40;92.80;;;;;;5095872;28;19914;-60
2023/05/27 04:55:35;;;;;;;;;;;20.40;92.80;;;;;;5097872;28;19915;-59
2023/05/27 04:58:03;;;;;;;;;;;20.40;92.80;;;;;;5097812;28;20355;-59
2023/05/27 05:00:48;;;;;;;;;;;20.40;92.90;;;;;;5098360;28;19912;-59
2023/05/27 05:03:20;;;;;;;;;;;20.40;92.90;;;;;;5097993;28;19912;-60
2023/05/27 05:05:51;;;;;;;;;;;20.40;92.80;;;;;;5098074;28;19916;-60
2023/05/27 05:08:17;;;;;;;;;;;20.40;92.90;;;;;;5098068;28;20339;-60
2023/05/27 05:10:42;;;;;;;;;;;20.40;93.00;;;;;;5079709;28;19947;-60
2023/05/27 05:13:08;;;;;;;;;;;20.40;92.90;;;;;;5097610;28;19924;-60
2023/05/27 05:15:34;;;;;;;;;;;20.40;92.90;;;;;;5097382;28;19914;-60
2023/05/27 05:17:59;;;;;;;;;;;20.40;93.00;;;;;;5097311;28;19930;-60
2023/05/27 05:20:25;;;;;;;;;;;20.40;92.90;;;;;;5099082;28;20263;-60
2023/05/27 05:22:50;;;;;;;;;;;20.40;93.00;;;;;;5117593;28;19996;-60
2023/05/27 05:25:16;;;;;;;;;;;20.40;93.00;;;;;;5118187;28;20263;-60
2023/05/27 05:27:41;;;;;;;;;;;20.40;93.00;;;;;;5117855;28;19998;-60
2023/05/27 05:30:07;;;;;;;;;;;20.40;93.00;;;;;;5099512;28;19908;-60
2023/05/27 05:32:33;;;;;;;;;;;20.40;93.00;;;;;;5117372;28;20132;-60
2023/05/27 05:34:58;;;;;;;;;;;20.40;93.10;;;;;;5117171;28;19912;-60
2023/05/27 05:37:24;;;;;;;;;;;20.40;93.20;;;;;;5117597;28;19908;-60
2023/05/27 05:39:49;;;;;;;;;;;20.40;93.10;;;;;;5117660;28;20302;-60
2023/05/27 05:42:15;;;;;;;;;;;20.40;93.00;;;;;;5099281;28;19922;-60
2023/05/27 05:44:41;;;;;;;;;;;20.40;92.90;;;;;;5117652;28;19920;-60
2023/05/27 05:47:06;;;;;;;;;;;20.40;93.00;;;;;;5117120;28;20010;-60
2023/05/27 05:49:32;;;;;;;;;;;20.40;93.00;;;;;;5099119;28;19930;-60
2023/05/27 05:51:57;;;;;;;;;;;20.40;92.90;;;;;;5117367;28;19951;-60
2023/05/27 05:54:23;;;;;;;;;;;20.40;93.00;;;;;;5116937;28;19907;-60
2023/05/27 05:56:48;;;;;;;;;;;20.40;93.00;;;;;;5116946;28;19928;-60
2023/05/27 05:59:14;;;;;;;;;;;20.40;93.10;;;;;;5116908;28;19907;-60
2023/05/27 06:01:39;;;;;;;;;;;20.40;93.10;;;;;;5098616;28;19915;-60
2023/05/27 06:04:06;;;;;;;;;;;20.40;93.20;;;;;;5116369;28;19915;-60
2023/05/27 06:06:31;;;;;;;;;;;20.40;93.10;;;;;;5098832;28;19907;-60
2023/05/27 06:08:57;;;;;;;;;;;20.40;92.90;;;;;;5093808;28;20333;-59
2023/05/27 06:11:22;;;;;;;;;;;20.40;92.70;;;;;;5093632;28;19948;-59
2023/05/27 06:13:48;;;;;;;;;;;20.40;92.70;;;;;;5095926;28;20267;-60
2023/05/27 06:16:13;;;;;;;;;;;20.40;92.80;;;;;;5095921;28;19912;-60
2023/05/27 06:18:39;;;;;;;;;;;20.40;92.40;;;;;;5096116;28;19999;-60
2023/05/27 06:21:04;;;;;;;;;;;20.30;92.40;;;;;;5103146;28;20346;-59
2023/05/27 06:23:30;;;;;;;;;;;20.40;92.70;;;;;;5116700;28;19971;-59
2023/05/27 06:25:55;;;;;;;;;;;20.30;92.60;;;;;;5083596;28;19958;-60
2023/05/27 06:28:21;;;;;;;;;;;20.40;92.80;;;;;;5099969;28;20311;-59
2023/05/27 06:30:46;;;;;;;;;;;20.40;92.50;;;;;;5098491;28;19912;-60
2023/05/27 06:33:12;;;;;;;;;;;20.40;92.50;;;;;;5075272;28;20354;-60
2023/05/27 06:35:37;;;;;;;;;;;20.40;92.50;;;;;;5098257;28;19913;-60
2023/05/27 06:38:02;;;;;;;;;;;20.30;92.50;;;;;;5095432;28;19909;-60
2023/05/27 06:40:28;;;;;;;;;;;20.30;92.40;;;;;;5095757;28;19945;-60
2023/05/27 06:42:54;;;;;;;;;;;20.30;92.50;;;;;;5092325;28;19920;-59
2023/05/27 06:45:20;;;;;;;;;;;20.30;92.60;;;;;;5094774;28;19919;-60
2023/05/27 06:47:45;;;;;;;;;;;20.30;92.60;;;;;;5094626;28;19912;-59
2023/05/27 06:50:10;;;;;;;;;;;20.30;92.40;;;;;;5077679;28;19909;-59
2023/05/27 06:52:36;;;;;;;;;;;20.30;92.40;;;;;;5077706;28;20277;-59
2023/05/27 06:55:02;;;;;;;;;;;20.40;92.40;;;;;;5079946;28;19913;-59
2023/05/27 06:57:27;;;;;;;;;;;20.30;92.20;;;;;;5076345;28;19941;-58
2023/05/27 06:59:52;;;;;;;;;;;20.30;92.50;;;;;;5104944;28;19947;-58
2023/05/27 07:02:18;;;;;;;;;;;20.30;92.30;;;;;;5096110;28;19924;-59
2023/05/27 07:04:43;;;;;;;;;;;20.40;91.40;;;;;;5115777;28;19918;-59
2023/05/27 07:07:09;;;;;;;;;;;20.30;91.60;;;;;;5113316;28;19957;-59
2023/05/27 07:09:34;;;;;;;;;;;20.40;91.60;;;;;;5116034;28;19908;-59
2023/05/27 07:12:01;;;;;;;;;;;20.30;91.50;;;;;;5115446;28;19908;-60
2023/05/27 07:14:26;;;;;;;;;;;20.30;91.70;;;;;;5115248;28;19931;-59
2023/05/27 07:16:52;;;;;;;;;;;20.30;91.70;;;;;;5115148;28;20358;-60
2023/05/27 07:19:17;;;;;;;;;;;20.30;91.80;;;;;;5097318;28;20075;-59
2023/05/27 07:21:43;;;;;;;;;;;20.30;91.90;;;;;;5115191;28;19907;-59
2023/05/27 07:24:08;;;;;;;;;;;20.30;91.90;;;;;;5115496;28;19947;-60
2023/05/27 07:26:34;;;;;;;;;;;20.30;92.00;;;;;;5115131;28;19915;-59
2023/05/27 07:29:00;;;;;;;;;;;20.30;92.20;;;;;;5115124;28;19908;-60
2023/05/27 07:31:27;;;;;;;;;;;20.30;92.20;;;;;;5096970;28;19908;-61
2023/05/27 07:33:53;;;;;;;;;;;20.30;92.20;;;;;;5097017;28;19912;-61
2023/05/27 07:36:18;;;;;;;;;;;20.30;92.20;;;;;;5115228;28;20009;-61
2023/05/27 07:38:44;;;;;;;;;;;20.30;92.20;;;;;;5115278;28;19915;-61
2023/05/27 07:41:09;;;;;;;;;;;20.30;92.20;;;;;;5114853;28;19912;-61
2023/05/27 07:43:35;;;;;;;;;;;20.30;92.30;;;;;;5114946;28;19920;-60
2023/05/27 07:46:00;;;;;;;;;;;20.30;91.90;;;;;;5115047;28;20220;-61
2023/05/27 07:48:27;;;;;;;;;;;20.30;92.10;;;;;;5114796;28;19908;-61
2023/05/27 07:50:52;;;;;;;;;;;20.30;92.10;;;;;;5096917;28;20386;-61
2023/05/27 07:53:18;;;;;;;;;;;20.30;91.90;;;;;;5096697;28;20010;-60
2023/05/27 07:55:43;;;;;;;;;;;20.30;92.50;;;;;;5115015;28;19914;-60
2023/05/27 07:58:09;;;;;;;;;;;20.30;92.00;;;;;;5114646;28;20029;-61
2023/05/27 08:00:34;;;;;;;;;;;20.30;92.30;;;;;;5096584;28;19908;-61
2023/05/27 08:03:00;;;;;;;;;;;20.30;92.50;;;;;;5114871;28;20404;-61
2023/05/27 08:05:25;;;;;;;;;;;20.30;92.20;;;;;;5096777;28;19919;-61
2023/05/27 08:07:51;;;;;;;;;;;20.30;92.20;;;;;;5114528;28;19961;-58
2023/05/27 08:10:16;;;;;;;;;;;20.30;92.20;;;;;;5114211;28;19934;-59
2023/05/27 08:12:41;;;;;;;;;;;20.30;92.00;;;;;;5096204;28;19951;-59
2023/05/27 08:15:07;;;;;;;;;;;20.30;92.20;;;;;;5114102;28;19908;-59
2023/05/27 08:17:33;;;;;;;;;;;20.20;92.20;;;;;;5096200;28;19908;-59
2023/05/27 08:19:58;;;;;;;;;;;20.30;92.20;;;;;;5096222;28;19912;-60
2023/05/27 08:22:23;;;;;;;;;;;20.30;92.00;;;;;;5095964;28;20353;-60
2023/05/27 08:24:49;;;;;;;;;;;20.30;92.20;;;;;;5094214;28;20278;-60
2023/05/27 08:27:15;;;;;;;;;;;20.30;92.10;;;;;;5093503;28;19916;-60
2023/05/27 08:29:41;;;;;;;;;;;20.20;92.10;;;;;;5094037;28;20003;-60
2023/05/27 08:32:07;;;;;;;;;;;20.20;92.10;;;;;;5093691;28;19947;-60
2023/05/27 08:34:32;;;;;;;;;;;20.30;92.30;;;;;;5093986;28;19909;-60
2023/05/27 08:36:58;;;;;;;;;;;20.30;92.20;;;;;;5093791;28;20075;-60
2023/05/27 08:39:23;;;;;;;;;;;20.30;92.10;;;;;;5093775;28;20007;-60
2023/05/27 08:41:48;;;;;;;;;;;20.30;92.10;;;;;;5093937;28;20366;-61
2023/05/27 08:44:15;;;;;;;;;;;20.30;92.40;;;;;;5093250;28;19920;-60
2023/05/27 08:46:41;;;;;;;;;;;20.30;92.30;;;;;;5092892;28;19961;-60
2023/05/27 08:49:07;;;;;;;;;;;20.30;92.00;;;;;;5093543;28;20301;-58
2023/05/27 08:51:35;;;;;;;;;;;20.30;92.20;;;;;;5093568;28;20007;-59
2023/05/27 08:54:01;;;;;;;;;;;20.30;92.00;;;;;;5075347;28;19908;-60
2023/05/27 08:56:28;;;;;;;;;;;20.30;92.30;;;;;;5088551;28;20014;-59
2023/05/27 08:58:54;;;;;;;;;;;20.20;92.20;;;;;;5091593;28;20270;-60
2023/05/27 09:01:21;;;;;;;;;;;20.20;92.00;;;;;;5093285;28;19915;-60
2023/05/27 09:03:47;;;;;;;;;;;20.30;92.00;;;;;;5099961;28;20331;-59
2023/05/27 09:06:13;;;;;;;;;;;20.30;92.20;;;;;;5099430;28;19908;-60
2023/05/27 09:08:39;;;;;;;;;;;20.30;92.10;;;;;;5098928;28;19999;-60
2023/05/27 09:11:07;;;;;;;;;;;20.30;92.10;;;;;;5105435;28;19927;-59
2023/05/27 09:13:33;;;;;;;;;;;20.20;92.20;;;;;;5093252;28;20341;-59
2023/05/27 09:16:05;;;;;;;;;;;20.30;92.20;;;;;;5093600;28;19908;-59
2023/05/27 09:18:32;;;;;;;;;;;20.20;91.80;;;;;;5092182;28;19904;-59
2023/05/27 09:20:57;;;;;;;;;;;20.30;92.20;;;;;;5098448;28;19908;-59
2023/05/27 09:23:23;;;;;;;;;;;20.30;92.30;;;;;;5111362;28;19927;-60
2023/05/27 09:25:49;;;;;;;;;;;20.20;92.20;;;;;;5087436;28;19999;-59
2023/05/27 09:28:21;;;;;;;;;;;20.20;92.30;;;;;;5108399;28;19912;-60
2023/05/27 09:30:50;;;;;;;;;;;20.20;92.00;;;;;;5101800;28;19915;-60
2023/05/27 09:33:22;;;;;;;;;;;20.30;92.10;;;;;;5113298;28;20247;-59
2023/05/27 09:35:47;;;;;;;;;;;20.30;92.10;;;;;;5096927;28;20010;-60
2023/05/27 09:38:13;;;;;;;;;;;20.30;92.10;;;;;;5102805;28;20462;-65
2023/05/27 09:40:38;;;;;;;;;;;20.30;92.20;;;;;;5097044;28;19924;-64
2023/05/27 09:43:04;;;;;;;;;;;20.30;92.10;;;;;;5097091;28;20290;-64
2023/05/27 09:45:30;;;;;;;;;;;20.30;92.20;;;;;;5095258;28;19975;-62
2023/05/27 09:47:56;;;;;;;;;;;20.30;92.20;;;;;;5079506;28;19959;-64
2023/05/27 09:50:21;;;;;;;;;;;20.30;92.20;;;;;;5117427;28;19939;-62
2023/05/27 09:52:48;;;;;;;;;;;20.30;92.40;;;;;;5117255;28;20358;-62
2023/05/27 09:55:14;;;;;;;;;;;20.30;92.40;;;;;;5117324;28;20000;-62
2023/05/27 09:57:40;;;;;;;;;;;20.30;92.30;;;;;;5096349;28;20002;-62
2023/05/27 10:00:14;;;;;;;;;;;20.30;92.40;;;;;;5078141;28;19908;-58
2023/05/27 10:02:41;;;;;;;;;;;20.30;92.50;;;;;;5116730;28;19916;-62
2023/05/27 10:05:09;;;;;;;;;;;20.30;92.30;;;;;;5110926;28;19947;-60
2023/05/27 10:07:37;;;;;;;;;;;20.30;92.30;;;;;;5096637;28;19959;-62
2023/05/27 10:10:04;;;;;;;;;;;20.30;92.50;;;;;;5096235;28;19916;-62
2023/05/27 10:12:30;;;;;;;;;;;20.30;92.60;;;;;;5101948;28;20312;-64
2023/05/27 10:14:55;;;;;;;;;;;20.30;92.60;;;;;;5096541;28;19914;-63
2023/05/27 10:17:21;;;;;;;;;;;20.30;92.60;;;;;;5097156;28;19968;-59
2023/05/27 10:19:54;;;;;;;;;;;20.30;92.70;;;;;;5096489;28;19908;-65
2023/05/27 10:22:20;;;;;;;;;;;20.30;92.60;;;;;;5113733;28;20355;-63
2023/05/27 10:24:48;;;;;;;;;;;20.40;92.70;;;;;;5112588;28;20033;-60
2023/05/27 10:27:13;;;;;;;;;;;20.40;92.70;;;;;;5116584;28;19953;-59
2023/05/27 10:29:39;;;;;;;;;;;20.40;92.50;;;;;;5116689;28;20006;-59
2023/05/27 10:32:05;;;;;;;;;;;20.40;92.50;;;;;;5097740;28;19999;-61
2023/05/27 10:34:34;;;;;;;;;;;20.40;92.60;;;;;;5110566;28;19919;-58
2023/05/27 10:37:00;;;;;;;;;;;20.30;92.60;;;;;;5096851;28;20432;-61
2023/05/27 10:39:26;;;;;;;;;;;20.40;92.60;;;;;;5092794;28;19947;-60
2023/05/27 10:41:52;;;;;;;;;;;20.40;92.60;;;;;;5101289;28;19921;-65
2023/05/27 10:44:28;;;;;;;;;;;20.40;92.30;;;;;;5115979;28;20046;-61
2023/05/27 10:47:03;;;;;;;;;;;20.40;92.30;;;;;;5101012;28;19911;-62
2023/05/27 10:49:35;;;;;;;;;;;20.40;92.60;;;;;;5104114;28;20383;-62
2023/05/27 10:52:33;;;;;;;;;;;20.40;92.10;;;;;;5094185;28;19919;-62
2023/05/27 10:54:59;;;;;;;;;;;20.40;92.00;;;;;;5076568;28;20032;-62
2023/05/27 10:57:24;;;;;;;;;;;20.40;92.30;;;;;;5092970;28;20374;-60
2023/05/27 10:59:52;;;;;;;;;;;20.40;92.00;;;;;;5095156;28;19912;-60
2023/05/27 11:02:17;;;;;;;;;;;20.40;92.10;;;;;;5092966;28;19924;-59
2023/05/27 11:04:43;;;;;;;;;;;20.40;92.10;;;;;;5105570;28;19912;-59
2023/05/27 11:07:08;;;;;;;;;;;20.40;92.10;;;;;;5096296;28;19916;-59
2023/05/27 11:09:53;;;;;;;;;;;20.40;92.00;;;;;;5113866;28;19918;-59
2023/05/27 11:12:22;;;;;;;;;;;20.40;92.20;;;;;;5115726;28;19916;-59
2023/05/27 11:14:49;;;;;;;;;;;20.40;92.00;;;;;;5113774;28;20450;-58
2023/05/27 11:17:14;;;;;;;;;;;20.40;92.10;;;;;;5096910;28;19994;-59
2023/05/27 11:19:40;;;;;;;;;;;20.40;92.00;;;;;;5115147;28;19998;-59
2023/05/27 11:22:08;;;;;;;;;;;20.40;92.10;;;;;;5115255;28;20435;-59
2023/05/27 11:24:35;;;;;;;;;;;20.40;92.00;;;;;;5109516;28;19919;-59
2023/05/27 11:27:07;;;;;;;;;;;20.40;91.80;;;;;;5092681;28;19920;-59
2023/05/27 11:29:33;;;;;;;;;;;20.40;92.30;;;;;;5091235;28;19919;-59
2023/05/27 11:31:58;;;;;;;;;;;20.40;91.80;;;;;;5094614;28;20365;-59
2023/05/27 11:34:24;;;;;;;;;;;20.40;91.90;;;;;;5094985;28;19908;-59
2023/05/27 11:36:49;;;;;;;;;;;20.40;92.00;;;;;;5094347;28;19961;-59
2023/05/27 11:39:18;;;;;;;;;;;20.40;92.00;;;;;;5092384;28;19912;-59
2023/05/27 11:41:47;;;;;;;;;;;20.50;92.00;;;;;;5104025;28;19908;-59
2023/05/27 11:44:13;;;;;;;;;;;20.40;92.00;;;;;;5101914;28;19915;-59
2023/05/27 11:46:43;;;;;;;;;;;20.40;91.90;;;;;;5113369;28;19985;-63
2023/05/27 11:49:10;;;;;;;;;;;20.40;91.90;;;;;;5115029;28;19903;-65
2023/05/27 11:51:43;;;;;;;;;;;20.40;91.70;;;;;;5102852;28;19920;-62
2023/05/27 11:54:19;;;;;;;;;;;20.40;92.00;;;;;;5073256;28;19912;-62
2023/05/27 11:56:45;;;;;;;;;;;20.40;92.00;;;;;;5114631;28;19904;-60
2023/05/27 11:59:10;;;;;;;;;;;20.50;91.70;;;;;;5111408;28;20362;-60
2023/05/27 12:01:36;;;;;;;;;;;20.50;92.00;;;;;;5096363;28;19915;-61
2023/05/27 12:04:02;;;;;;;;;;;20.50;91.90;;;;;;5093225;28;20024;-60
2023/05/27 12:06:27;;;;;;;;;;;20.50;91.80;;;;;;5093148;28;19948;-58
2023/05/27 12:08:52;;;;;;;;;;;20.50;91.80;;;;;;5094401;28;19964;-61
2023/05/27 12:11:18;;;;;;;;;;;20.50;92.00;;;;;;5110056;28;19955;-62
2023/05/27 12:13:43;;;;;;;;;;;20.50;92.00;;;;;;5114470;28;19931;-62
2023/05/27 12:16:10;;;;;;;;;;;20.50;91.90;;;;;;5114449;28;19911;-57
2023/05/27 12:18:36;;;;;;;;;;;20.50;91.70;;;;;;5075330;28;20274;-61
2023/05/27 12:21:02;;;;;;;;;;;20.50;91.80;;;;;;5092696;28;20368;-61
2023/05/27 12:23:28;;;;;;;;;;;20.50;92.00;;;;;;5073465;28;19944;-62
2023/05/27 12:25:53;;;;;;;;;;;20.50;91.90;;;;;;5076212;28;19904;-62
2023/05/27 12:28:19;;;;;;;;;;;20.50;91.80;;;;;;5094493;28;19923;-59
2023/05/27 12:30:46;;;;;;;;;;;20.50;91.70;;;;;;5075966;28;19904;-59
2023/05/27 12:33:11;;;;;;;;;;;20.50;91.50;;;;;;5075963;28;19911;-59
2023/05/27 12:35:37;;;;;;;;;;;20.50;91.80;;;;;;5093962;28;19916;-59
2023/05/27 12:38:02;;;;;;;;;;;20.50;91.80;;;;;;5093942;28;19957;-59
2023/05/27 12:40:28;;;;;;;;;;;20.50;92.20;;;;;;5093807;28;19958;-59
2023/05/27 12:42:53;;;;;;;;;;;20.50;92.30;;;;;;5093761;28;19916;-59
2023/05/27 12:45:24;;;;;;;;;;;20.50;92.00;;;;;;5093975;28;20392;-59
2023/05/27 12:47:50;;;;;;;;;;;20.50;92.10;;;;;;5094282;28;20273;-59
2023/05/27 12:50:16;;;;;;;;;;;20.50;92.10;;;;;;5075681;28;19904;-59
2023/05/27 12:52:46;;;;;;;;;;;20.50;92.20;;;;;;5093510;28;19904;-59
2023/05/27 12:55:16;;;;;;;;;;;20.50;92.20;;;;;;5093630;28;19949;-59
2023/05/27 12:57:52;;;;;;;;;;;20.50;92.30;;;;;;5073583;28;20421;-60
2023/05/27 13:00:18;;;;;;;;;;;20.40;92.10;;;;;;5073561;28;20018;-60
2023/05/27 13:02:44;;;;;;;;;;;20.50;92.10;;;;;;5073141;28;19958;-59
2023/05/27 13:05:09;;;;;;;;;;;20.40;92.20;;;;;;5073887;28;19920;-59
2023/05/27 13:07:35;;;;;;;;;;;20.50;92.30;;;;;;5073514;28;20408;-59
2023/05/27 13:10:03;;;;;;;;;;;20.50;92.30;;;;;;5090847;28;19943;-60
2023/05/27 13:12:29;;;;;;;;;;;20.40;92.10;;;;;;5075228;28;19924;-60
2023/05/27 13:14:54;;;;;;;;;;;20.40;92.00;;;;;;5096890;28;19904;-59
2023/05/27 13:17:20;;;;;;;;;;;20.50;92.40;;;;;;5097081;28;19998;-59
2023/05/27 13:19:47;;;;;;;;;;;20.50;92.00;;;;;;5096851;28;19912;-59
2023/05/27 13:22:14;;;;;;;;;;;20.50;92.30;;;;;;5113738;28;20007;-60
2023/05/27 13:24:39;;;;;;;;;;;20.50;92.20;;;;;;5098960;28;19912;-59
2023/05/27 13:27:05;;;;;;;;;;;20.50;91.80;;;;;;5079031;28;19915;-60
2023/05/27 13:29:31;;;;;;;;;;;20.40;91.90;;;;;;5097029;28;19908;-60
2023/05/27 13:31:57;;;;;;;;;;;20.40;92.10;;;;;;5097956;28;19904;-60
2023/05/27 13:34:22;;;;;;;;;;;20.50;91.80;;;;;;5103968;28;19908;-59
2023/05/27 13:36:47;;;;;;;;;;;20.50;91.80;;;;;;5102213;28;20328;-59
2023/05/27 13:39:13;;;;;;;;;;;20.40;92.10;;;;;;5105459;28;19915;-60
2023/05/27 13:41:39;;;;;;;;;;;20.40;91.90;;;;;;5113151;28;19918;-60
2023/05/27 13:44:05;;;;;;;;;;;20.50;91.80;;;;;;5093951;28;19922;-60
2023/05/27 13:46:30;;;;;;;;;;;20.50;91.90;;;;;;5105358;28;19961;-60
2023/05/27 13:48:56;;;;;;;;;;;20.50;91.70;;;;;;5109640;28;19960;-60
2023/05/27 13:51:21;;;;;;;;;;;20.50;91.90;;;;;;5088335;28;20259;-60
2023/05/27 13:53:48;;;;;;;;;;;20.40;91.80;;;;;;5096308;28;19908;-59
2023/05/27 13:56:14;;;;;;;;;;;20.50;91.70;;;;;;5107125;28;19952;-59
2023/05/27 13:58:39;;;;;;;;;;;20.50;91.60;;;;;;5107822;28;19903;-60
2023/05/27 14:01:05;;;;;;;;;;;20.50;91.40;;;;;;5112983;28;19908;-60
2023/05/27 14:03:30;;;;;;;;;;;20.50;91.60;;;;;;5113718;28;19927;-60
2023/05/27 14:05:56;;;;;;;;;;;20.50;91.80;;;;;;5096300;28;19904;-60
2023/05/27 14:08:22;;;;;;;;;;;20.50;91.60;;;;;;5096527;28;19914;-60
2023/05/27 14:10:47;;;;;;;;;;;20.50;91.70;;;;;;5100643;28;19908;-60